AFR613 TFFR-TFFF
Flight info
| Callsign | AFR613 |
|---|---|
| Flight time | 0h 27m |
| Altitude | 14000 |
| Route | KATIM2F KATIM DCT KAREX DCT FOF |
| Aircraft | A320/M-SDE3FGHIRWY/LB1 |
Departure
| Time | 2026-04-25 15:45 |
|---|---|
| Airport | Maryse Condé International Airport (TFFR) |
Arrival
| Time | 2026-04-25 16:13 |
|---|---|
| Airport | Martinique Aimé Césaire International Airport (TFFF) |
| Time | Latitude | Longitude | Altitude | Speed | Heading |
|---|---|---|---|---|---|
| 2026-04-25 15:15 | 16.26940 | -61.52822 | 24 ft | 0 kts | 11° |
| 2026-04-25 15:35 | 16.26927 | -61.52824 | 26 ft | 2 kts | 11° |
| 2026-04-25 15:35 | 16.26910 | -61.52828 | 24 ft | 2 kts | 11° |
| 2026-04-25 15:35 | 16.26894 | -61.52831 | 27 ft | 2 kts | 11° |
| 2026-04-25 15:36 | 16.26860 | -61.52831 | 23 ft | 2 kts | 356° |
| 2026-04-25 15:36 | 16.26844 | -61.52827 | 23 ft | 2 kts | 321° |
| 2026-04-25 15:36 | 16.26834 | -61.52814 | 23 ft | 2 kts | 287° |
| 2026-04-25 15:37 | 16.26833 | -61.52811 | 27 ft | 0 kts | 287° |
| 2026-04-25 15:38 | 16.26835 | -61.52820 | 23 ft | 4 kts | 287° |
| 2026-04-25 15:38 | 16.26846 | -61.52856 | 23 ft | 5 kts | 286° |
| 2026-04-25 15:38 | 16.26848 | -61.52896 | 23 ft | 7 kts | 258° |
| 2026-04-25 15:39 | 16.26813 | -61.52933 | 23 ft | 9 kts | 202° |
| 2026-04-25 15:39 | 16.26750 | -61.52948 | 23 ft | 10 kts | 192° |
| 2026-04-25 15:39 | 16.26677 | -61.52963 | 23 ft | 11 kts | 189° |
| 2026-04-25 15:39 | 16.26598 | -61.52977 | 24 ft | 12 kts | 191° |
| 2026-04-25 15:40 | 16.26521 | -61.53000 | 28 ft | 11 kts | 217° |
| 2026-04-25 15:40 | 16.26509 | -61.53021 | 26 ft | 10 kts | 250° |
| 2026-04-25 15:40 | 16.26521 | -61.53129 | 28 ft | 9 kts | 280° |
| 2026-04-25 15:40 | 16.26531 | -61.53189 | 28 ft | 8 kts | 280° |
| 2026-04-25 15:41 | 16.26543 | -61.53251 | 26 ft | 10 kts | 281° |
| 2026-04-25 15:41 | 16.26559 | -61.53332 | 25 ft | 12 kts | 281° |
| 2026-04-25 15:41 | 16.26575 | -61.53417 | 25 ft | 11 kts | 281° |
| 2026-04-25 15:41 | 16.26590 | -61.53495 | 27 ft | 12 kts | 282° |
| 2026-04-25 15:42 | 16.26612 | -61.53604 | 27 ft | 21 kts | 282° |
| 2026-04-25 15:42 | 16.26641 | -61.53767 | 22 ft | 25 kts | 280° |
| 2026-04-25 15:42 | 16.26673 | -61.53959 | 19 ft | 28 kts | 281° |
| 2026-04-25 15:42 | 16.26714 | -61.54168 | 14 ft | 31 kts | 281° |
| 2026-04-25 15:43 | 16.26743 | -61.54319 | 12 ft | 12 kts | 278° |
| 2026-04-25 15:43 | 16.26718 | -61.54396 | 12 ft | 10 kts | 258° |
| 2026-04-25 15:43 | 16.26758 | -61.54406 | 11 ft | 6 kts | 54° |
| 2026-04-25 15:43 | 16.26758 | -61.54384 | 12 ft | 0 kts | 101° |
| 2026-04-25 15:44 | 16.26722 | -61.54196 | 15 ft | 64 kts | 101° |
| 2026-04-25 15:44 | 16.26597 | -61.53520 | 27 ft | 123 kts | 101° |
| 2026-04-25 15:45 | 16.26394 | -61.52476 | 103 ft | 164 kts | 106° |
| 2026-04-25 15:45 | 16.26171 | -61.51341 | 800 ft | 159 kts | 103° |
| 2026-04-25 15:45 | 16.25945 | -61.50211 | 1516 ft | 159 kts | 102° |
| 2026-04-25 15:45 | 16.25874 | -61.49848 | 1798 ft | 157 kts | 102° |
| 2026-04-25 15:46 | 16.25538 | -61.47929 | 2886 ft | 163 kts | 101° |
| 2026-04-25 15:46 | 16.25335 | -61.46753 | 3440 ft | 171 kts | 103° |
| 2026-04-25 15:46 | 16.25100 | -61.45473 | 3749 ft | 193 kts | 103° |
| 2026-04-25 15:46 | 16.24829 | -61.44017 | 4054 ft | 218 kts | 103° |
| 2026-04-25 15:47 | 16.24456 | -61.42402 | 4438 ft | 241 kts | 116° |
| 2026-04-25 15:47 | 16.23318 | -61.41085 | 4919 ft | 257 kts | 153° |
| 2026-04-25 15:47 | 16.21571 | -61.40656 | 5691 ft | 263 kts | 178° |
| 2026-04-25 15:47 | 16.19730 | -61.40736 | 6534 ft | 267 kts | 186° |
| 2026-04-25 15:48 | 16.17864 | -61.40949 | 7355 ft | 271 kts | 186° |
| 2026-04-25 15:48 | 16.15975 | -61.41148 | 8179 ft | 274 kts | 185° |
| 2026-04-25 15:48 | 16.14711 | -61.41246 | 8731 ft | 276 kts | 184° |
| 2026-04-25 15:48 | 16.12784 | -61.41338 | 9569 ft | 279 kts | 182° |
| 2026-04-25 15:49 | 16.10835 | -61.41380 | 10281 ft | 286 kts | 181° |
| 2026-04-25 15:49 | 16.08766 | -61.41392 | 10523 ft | 309 kts | 181° |
| 2026-04-25 15:49 | 16.06544 | -61.41381 | 10911 ft | 325 kts | 180° |
| 2026-04-25 15:49 | 16.04260 | -61.41354 | 11556 ft | 331 kts | 180° |
| 2026-04-25 15:50 | 16.01936 | -61.41321 | 12234 ft | 336 kts | 180° |
| 2026-04-25 15:50 | 15.99578 | -61.41285 | 12891 ft | 341 kts | 180° |
| 2026-04-25 15:50 | 15.97193 | -61.41251 | 13547 ft | 345 kts | 180° |
| 2026-04-25 15:50 | 15.94773 | -61.41218 | 13895 ft | 349 kts | 180° |
| 2026-04-25 15:51 | 15.92344 | -61.41187 | 13988 ft | 348 kts | 180° |
| 2026-04-25 15:51 | 15.90745 | -61.41167 | 14007 ft | 346 kts | 180° |
| 2026-04-25 15:51 | 15.87529 | -61.41129 | 14008 ft | 344 kts | 180° |
| 2026-04-25 15:51 | 15.85135 | -61.41103 | 14013 ft | 344 kts | 180° |
| 2026-04-25 15:52 | 15.82734 | -61.41078 | 14016 ft | 345 kts | 180° |
| 2026-04-25 15:52 | 15.80338 | -61.41050 | 14014 ft | 344 kts | 180° |
| 2026-04-25 15:52 | 15.77972 | -61.41022 | 14018 ft | 344 kts | 180° |
| 2026-04-25 15:52 | 15.75579 | -61.40992 | 14021 ft | 344 kts | 180° |
| 2026-04-25 15:53 | 15.73184 | -61.40961 | 14021 ft | 344 kts | 180° |
| 2026-04-25 15:53 | 15.70786 | -61.40930 | 14024 ft | 344 kts | 180° |
| 2026-04-25 15:53 | 15.68389 | -61.40900 | 14024 ft | 344 kts | 180° |
| 2026-04-25 15:53 | 15.65994 | -61.40871 | 14029 ft | 344 kts | 180° |
| 2026-04-25 15:54 | 15.63597 | -61.40840 | 14032 ft | 345 kts | 180° |
| 2026-04-25 15:54 | 15.61198 | -61.40808 | 14033 ft | 345 kts | 180° |
| 2026-04-25 15:54 | 15.58803 | -61.40778 | 14032 ft | 344 kts | 180° |
| 2026-04-25 15:54 | 15.56408 | -61.40750 | 14034 ft | 345 kts | 180° |
| 2026-04-25 15:55 | 15.54008 | -61.40723 | 14035 ft | 345 kts | 180° |
| 2026-04-25 15:55 | 15.51610 | -61.40696 | 14037 ft | 345 kts | 180° |
| 2026-04-25 15:55 | 15.49209 | -61.40670 | 14035 ft | 345 kts | 180° |
| 2026-04-25 15:55 | 15.46810 | -61.40641 | 13989 ft | 345 kts | 180° |
| 2026-04-25 15:56 | 15.44409 | -61.40609 | 13986 ft | 345 kts | 180° |
| 2026-04-25 15:56 | 15.42004 | -61.40577 | 13985 ft | 345 kts | 180° |
| 2026-04-25 15:56 | 15.39606 | -61.40531 | 13985 ft | 345 kts | 176° |
| 2026-04-25 15:56 | 15.37220 | -61.40214 | 13984 ft | 345 kts | 173° |
| 2026-04-25 15:57 | 15.34845 | -61.39854 | 13983 ft | 345 kts | 173° |
| 2026-04-25 15:57 | 15.32465 | -61.39492 | 13983 ft | 345 kts | 173° |
| 2026-04-25 15:57 | 15.30088 | -61.39127 | 13982 ft | 345 kts | 173° |
| 2026-04-25 15:57 | 15.27715 | -61.38762 | 13980 ft | 345 kts | 173° |
| 2026-04-25 15:58 | 15.25372 | -61.38403 | 13983 ft | 345 kts | 173° |
| 2026-04-25 15:58 | 15.22997 | -61.38040 | 13982 ft | 345 kts | 173° |
| 2026-04-25 15:58 | 15.20620 | -61.37676 | 13986 ft | 345 kts | 173° |
| 2026-04-25 15:58 | 15.18245 | -61.37313 | 13991 ft | 345 kts | 173° |
| 2026-04-25 15:59 | 15.15865 | -61.36949 | 13995 ft | 345 kts | 173° |
| 2026-04-25 15:59 | 15.13485 | -61.36586 | 13997 ft | 346 kts | 173° |
| 2026-04-25 15:59 | 15.11106 | -61.36224 | 13999 ft | 346 kts | 173° |
| 2026-04-25 15:59 | 15.08728 | -61.35860 | 14007 ft | 345 kts | 173° |
| 2026-04-25 16:00 | 15.06353 | -61.35497 | 14015 ft | 341 kts | 173° |
| 2026-04-25 16:00 | 15.05571 | -61.35377 | 13964 ft | 337 kts | 173° |
| 2026-04-25 16:00 | 15.01811 | -61.34800 | 13728 ft | 319 kts | 173° |
| 2026-04-25 16:00 | 14.99651 | -61.34472 | 13598 ft | 309 kts | 173° |
| 2026-04-25 16:01 | 14.97549 | -61.34152 | 13351 ft | 303 kts | 173° |
| 2026-04-25 16:01 | 14.95453 | -61.33836 | 12764 ft | 310 kts | 173° |
| 2026-04-25 16:01 | 14.93335 | -61.33519 | 12522 ft | 303 kts | 173° |
| 2026-04-25 16:01 | 14.91285 | -61.33208 | 12098 ft | 294 kts | 173° |
| 2026-04-25 16:02 | 14.89272 | -61.32901 | 11492 ft | 291 kts | 173° |
| 2026-04-25 16:02 | 14.87280 | -61.32599 | 10960 ft | 289 kts | 172° |
| 2026-04-25 16:02 | 14.85297 | -61.32298 | 10546 ft | 287 kts | 172° |
| 2026-04-25 16:02 | 14.83332 | -61.32001 | 10183 ft | 280 kts | 172° |
| 2026-04-25 16:03 | 14.81478 | -61.31719 | 9986 ft | 262 kts | 172° |
| 2026-04-25 16:03 | 14.79692 | -61.31448 | 9520 ft | 256 kts | 172° |
| 2026-04-25 16:03 | 14.77947 | -61.31183 | 9040 ft | 250 kts | 172° |
| 2026-04-25 16:03 | 14.76244 | -61.30925 | 8570 ft | 245 kts | 172° |
| 2026-04-25 16:04 | 14.74568 | -61.30670 | 8108 ft | 242 kts | 172° |
| 2026-04-25 16:04 | 14.72910 | -61.30418 | 7653 ft | 240 kts | 171° |
| 2026-04-25 16:04 | 14.71285 | -61.30170 | 7207 ft | 238 kts | 171° |
| 2026-04-25 16:04 | 14.69649 | -61.29922 | 6761 ft | 237 kts | 171° |
| 2026-04-25 16:05 | 14.68021 | -61.29675 | 6310 ft | 236 kts | 170° |
| 2026-04-25 16:05 | 14.66397 | -61.29428 | 5840 ft | 235 kts | 171° |
| 2026-04-25 16:05 | 14.63185 | -61.28924 | 4989 ft | 231 kts | 170° |
| 2026-04-25 16:06 | 14.61606 | -61.28668 | 4580 ft | 229 kts | 169° |
| 2026-04-25 16:06 | 14.60042 | -61.28416 | 4228 ft | 227 kts | 169° |
| 2026-04-25 16:06 | 14.58531 | -61.28027 | 4012 ft | 219 kts | 156° |
| 2026-04-25 16:06 | 14.57242 | -61.27274 | 3848 ft | 210 kts | 140° |
| 2026-04-25 16:07 | 14.56298 | -61.26167 | 3640 ft | 203 kts | 120° |
| 2026-04-25 16:07 | 14.55944 | -61.25282 | 3518 ft | 201 kts | 105° |
| 2026-04-25 16:07 | 14.55632 | -61.23418 | 3344 ft | 193 kts | 97° |
| 2026-04-25 16:07 | 14.55573 | -61.22033 | 3221 ft | 195 kts | 92° |
| 2026-04-25 16:08 | 14.55642 | -61.20617 | 3044 ft | 201 kts | 86° |
| 2026-04-25 16:08 | 14.55804 | -61.19185 | 2945 ft | 203 kts | 85° |
| 2026-04-25 16:08 | 14.56008 | -61.17763 | 2953 ft | 195 kts | 83° |
| 2026-04-25 16:08 | 14.56245 | -61.16429 | 2953 ft | 185 kts | 80° |
| 2026-04-25 16:09 | 14.56532 | -61.15155 | 2787 ft | 181 kts | 79° |
| 2026-04-25 16:09 | 14.56802 | -61.13908 | 2581 ft | 175 kts | 81° |
| 2026-04-25 16:09 | 14.57027 | -61.12697 | 2352 ft | 166 kts | 82° |
| 2026-04-25 16:09 | 14.57196 | -61.11565 | 2135 ft | 152 kts | 83° |
| 2026-04-25 16:10 | 14.57363 | -61.10557 | 1971 ft | 137 kts | 82° |
| 2026-04-25 16:10 | 14.57521 | -61.09601 | 1698 ft | 136 kts | 82° |
| 2026-04-25 16:10 | 14.57678 | -61.08642 | 1473 ft | 135 kts | 82° |
| 2026-04-25 16:10 | 14.57844 | -61.07692 | 1258 ft | 135 kts | 84° |
| 2026-04-25 16:11 | 14.58027 | -61.06747 | 1068 ft | 134 kts | 82° |
| 2026-04-25 16:11 | 14.58189 | -61.05805 | 874 ft | 133 kts | 84° |
| 2026-04-25 16:11 | 14.58340 | -61.04854 | 664 ft | 136 kts | 82° |
| 2026-04-25 16:11 | 14.58498 | -61.03871 | 495 ft | 139 kts | 86° |
| 2026-04-25 16:12 | 14.58676 | -61.02930 | 329 ft | 132 kts | 82° |
| 2026-04-25 16:12 | 14.58819 | -61.02002 | 106 ft | 132 kts | 84° |
| 2026-04-25 16:12 | 14.58983 | -61.01123 | 27 ft | 112 kts | 84° |
| 2026-04-25 16:12 | 14.59046 | -61.00653 | 17 ft | 82 kts | 80° |
| 2026-04-25 16:13 | 14.59135 | -61.00141 | 16 ft | 38 kts | 81° |
| 2026-04-25 16:13 | 14.59178 | -61.00025 | 18 ft | 9 kts | 20° |
| 2026-04-25 16:13 | 14.59232 | -61.00028 | 19 ft | 7 kts | 353° |
| 2026-04-25 16:13 | 14.59272 | -61.00034 | 19 ft | 5 kts | 349° |
| 2026-04-25 16:14 | 14.59307 | -61.00041 | 19 ft | 5 kts | 350° |
| 2026-04-25 16:14 | 14.59340 | -61.00047 | 18 ft | 5 kts | 348° |
| 2026-04-25 16:14 | 14.59368 | -61.00066 | 18 ft | 5 kts | 309° |
| 2026-04-25 16:14 | 14.59381 | -61.00097 | 17 ft | 5 kts | 294° |
| 2026-04-25 16:15 | 14.59395 | -61.00129 | 17 ft | 5 kts | 294° |
| 2026-04-25 16:15 | 14.59414 | -61.00168 | 17 ft | 8 kts | 301° |
| 2026-04-25 16:15 | 14.59449 | -61.00216 | 18 ft | 7 kts | 312° |
| 2026-04-25 16:15 | 14.59479 | -61.00201 | 18 ft | 5 kts | 51° |
| 2026-04-25 16:16 | 14.59505 | -61.00169 | 17 ft | 7 kts | 47° |
| 2026-04-25 16:16 | 14.59523 | -61.00149 | 18 ft | 0 kts | 47° |